Nearby METAR Reports

 

KHCR - Heber/Russ Mcdon, Utah, USA
Distance from station: SSW 18mi, 29km
Updated: Fri, 05-Jun-2020 10:35pm MDT
Partly cloudy
Partly cloudy
 Wind from SW
Wind: SW 16 mph , 26 km/h, Gust: 29 mph , 46 km/h
Temperature: 77°F , 25°C
Dew Point: 32°F , 0°C
Humidity: 19%
Barometer: 29.86 inHg , 1011.2 hPa
Clouds: Partly cloudy
Visibility: 10 miles , 16 km
Cloud details: Partly cloudy 12000 ft
2020/06/06 04:35 KHCR 060435Z AUTO 22014G25KT 10SM SCT120 25/00 A2986 RMK AO2
KSLC - Salt Lake City, Utah, USA
Distance from station: W 35mi, 57km
Updated: Fri, 05-Jun-2020 9:54pm MDT
Mostly cloudy
Mostly cloudy
 Wind from S
Wind: S 20 mph , 31 km/h, Gust: 24 mph , 39 km/h
Temperature: 88°F , 31°C
Dew Point: 36°F , 2°C
Humidity: 16%
Barometer: 29.69 inHg , 1005.4 hPa
Clouds: Mostly cloudy
Visibility: 10 miles , 16 km
Cloud details: Few Clouds 11000 ft
Partly cloudy 13000 ft
Mostly cloudy 16000 ft
2020/06/06 03:54 KSLC 060354Z 18017G21KT 10SM FEW110 SCT130 BKN160 31/02 A2969 RMK AO2 SLP981 T03110017
 
KU42 - Salt Lake Muni, Utah, USA
Distance from station: WSW 37mi, 59km
Updated: Fri, 05-Jun-2020 10:35pm MDT
Clear
Clear
 Wind from S
Wind: S 17 mph , 28 km/h
Temperature: 82°F , 28°C
Dew Point: 41°F , 5°C
Humidity: 23%
Barometer: 29.77 inHg , 1008.1 hPa
Clouds: Clear
Visibility: 10 miles , 16 km
2020/06/06 04:35 KU42 060435Z AUTO 17015KT 10SM CLR 28/05 A2977 RMK AO1 T02760045
KEVW - Evanston, Wyoming, USA
Distance from station: NNE 40mi, 64km
Updated: Fri, 05-Jun-2020 9:53pm MDT
Clear
Clear
 Wind from SSW
Wind: SSW 9 mph , 15 km/h
Temperature: 63°F , 17°C
Dew Point: 36°F , 2°C
Humidity: 37%
Barometer: 29.95 inHg , 1014.2 hPa
Clouds: Clear
Visibility: 10 miles , 16 km
2020/06/06 03:53 KEVW 060353Z AUTO 20008KT 10SM CLR 17/02 A2995 RMK AO2 SLP041 T01670022
 
KPVU - Provo Muni, Utah, USA
Distance from station: SSW 41mi, 67km
Updated: Fri, 05-Jun-2020 9:56pm MDT
Clear
Clear
 Wind from SSW
Wind: SSW 23 mph , 37 km/h
Temperature: 81°F , 27°C
Dew Point: 46°F , 8°C
Humidity: 30%
Barometer: 29.81 inHg , 1009.5 hPa
Clouds: Clear
Visibility: 10 miles , 16 km
2020/06/06 03:56 KPVU 060356Z AUTO 21020KT 10SM CLR 27/08 A2981 RMK AO2 PK WND 21035/0307 SLP027 T02720083
KHIF - Hill Afb/Ogden, Utah, USA
Distance from station: NW 45mi, 72km
Updated: Fri, 05-Jun-2020 9:58pm MDT
Mostly cloudy
Mostly cloudy
 Wind from S
Wind: S 16 mph , 26 km/h, Gust: 30 mph , 48 km/h
Temperature: 84°F , 29°C
Dew Point: 34°F , 1°C
Humidity: 16%
Barometer: 29.72 inHg , 1006.4 hPa
Clouds: Mostly cloudy
Visibility: 10 miles , 16 km
Cloud details: Mostly cloudy 13000 ft
2020/06/06 03:58 KHIF 060358Z 18014G26KT 10SM BKN130 29/01 A2972 RMK AO2A PK WND 15026/38 SLP993 MIDFLD WND 16017G24KT T02890014
 
KOGD - Ogden, Utah, USA
Distance from station: NW 50mi, 81km
Updated: Fri, 05-Jun-2020 9:53pm MDT
Clear
Clear
 Wind from S
Wind: S 21 mph , 33 km/h, Gust: 25 mph , 41 km/h
Temperature: 88°F , 31°C
Dew Point: 30°F , -1°C
Humidity: 13%
Barometer: 29.68 inHg , 1005.1 hPa
Clouds: Clear
Visibility: 10 miles , 16 km
2020/06/06 03:53 KOGD 060353Z AUTO 18018G22KT 10SM CLR 31/M01 A2968 RMK AO2 PK WND 16027/0340 SLP977 T03061006 $